sensor_id;sensor_type;location;lat;lon;timestamp;temperature;humidity
26505;DHT22;19493;48.042;7.584;2023-08-06T00:02:13;15.80;99.90
26505;DHT22;19493;48.042;7.584;2023-08-06T00:04:38;15.80;99.90
26505;DHT22;19493;48.042;7.584;2023-08-06T00:07:04;15.90;99.90
26505;DHT22;19493;48.042;7.584;2023-08-06T00:09:30;15.90;99.90
26505;DHT22;19493;48.042;7.584;2023-08-06T00:11:55;16.00;99.90
26505;DHT22;19493;48.042;7.584;2023-08-06T00:14:21;16.00;99.90
26505;DHT22;19493;48.042;7.584;2023-08-06T00:16:46;16.00;99.90
26505;DHT22;19493;48.042;7.584;2023-08-06T00:19:12;16.00;99.90
26505;DHT22;19493;48.042;7.584;2023-08-06T00:21:38;15.90;99.90
26505;DHT22;19493;48.042;7.584;2023-08-06T00:24:03;15.90;99.90
26505;DHT22;19493;48.042;7.584;2023-08-06T00:26:29;15.90;99.90
26505;DHT22;19493;48.042;7.584;2023-08-06T00:28:54;15.80;99.90
26505;DHT22;19493;48.042;7.584;2023-08-06T00:31:20;15.80;99.90
26505;DHT22;19493;48.042;7.584;2023-08-06T00:33:45;15.90;99.90
26505;DHT22;19493;48.042;7.584;2023-08-06T00:36:11;15.90;99.90
26505;DHT22;19493;48.042;7.584;2023-08-06T00:38:36;15.80;99.90
26505;DHT22;19493;48.042;7.584;2023-08-06T00:41:02;15.70;99.90
26505;DHT22;19493;48.042;7.584;2023-08-06T00:43:28;15.70;99.90
26505;DHT22;19493;48.042;7.584;2023-08-06T00:45:54;15.70;99.90
26505;DHT22;19493;48.042;7.584;2023-08-06T00:48:20;15.60;99.90
26505;DHT22;19493;48.042;7.584;2023-08-06T00:50:46;15.60;99.90
26505;DHT22;19493;48.042;7.584;2023-08-06T00:53:12;15.60;99.90
26505;DHT22;19493;48.042;7.584;2023-08-06T00:55:38;15.70;99.90
26505;DHT22;19493;48.042;7.584;2023-08-06T00:58:04;15.60;99.90
26505;DHT22;19493;48.042;7.584;2023-08-06T01:00:30;15.60;99.90
26505;DHT22;19493;48.042;7.584;2023-08-06T01:02:55;15.60;99.90
26505;DHT22;19493;48.042;7.584;2023-08-06T01:05:22;15.60;99.90
26505;DHT22;19493;48.042;7.584;2023-08-06T01:13:26;15.70;99.90
26505;DHT22;19493;48.042;7.584;2023-08-06T01:15:58;15.70;99.90
26505;DHT22;19493;48.042;7.584;2023-08-06T01:18:25;15.80;99.90
26505;DHT22;19493;48.042;7.584;2023-08-06T01:20:51;15.70;99.90
26505;DHT22;19493;48.042;7.584;2023-08-06T01:23:16;15.50;99.90
26505;DHT22;19493;48.042;7.584;2023-08-06T01:26:13;15.20;99.90
26505;DHT22;19493;48.042;7.584;2023-08-06T01:29:28;15.00;99.90
26505;DHT22;19493;48.042;7.584;2023-08-06T01:31:35;14.90;99.90
26505;DHT22;19493;48.042;7.584;2023-08-06T01:34:03;14.90;99.90
26505;DHT22;19493;48.042;7.584;2023-08-06T01:36:30;14.90;99.90
26505;DHT22;19493;48.042;7.584;2023-08-06T01:38:56;14.80;99.90
26505;DHT22;19493;48.042;7.584;2023-08-06T01:41:22;14.80;99.90
26505;DHT22;19493;48.042;7.584;2023-08-06T01:43:48;14.90;99.90
26505;DHT22;19493;48.042;7.584;2023-08-06T01:46:13;14.90;99.90
26505;DHT22;19493;48.042;7.584;2023-08-06T01:48:39;15.00;99.90
26505;DHT22;19493;48.042;7.584;2023-08-06T01:51:05;15.00;99.90
26505;DHT22;19493;48.042;7.584;2023-08-06T01:53:34;15.00;99.90
26505;DHT22;19493;48.042;7.584;2023-08-06T01:55:59;14.90;99.90
26505;DHT22;19493;48.042;7.584;2023-08-06T01:58:25;14.80;99.90
26505;DHT22;19493;48.042;7.584;2023-08-06T02:00:50;14.80;99.90
26505;DHT22;19493;48.042;7.584;2023-08-06T02:03:16;14.80;99.90
26505;DHT22;19493;48.042;7.584;2023-08-06T02:05:42;14.80;99.90
26505;DHT22;19493;48.042;7.584;2023-08-06T02:08:08;14.80;99.90
26505;DHT22;19493;48.042;7.584;2023-08-06T02:10:34;14.80;99.90
26505;DHT22;19493;48.042;7.584;2023-08-06T02:12:59;14.70;99.90
26505;DHT22;19493;48.042;7.584;2023-08-06T02:15:25;14.60;99.90
26505;DHT22;19493;48.042;7.584;2023-08-06T02:17:50;14.60;99.90
26505;DHT22;19493;48.042;7.584;2023-08-06T02:20:16;14.60;99.90
26505;DHT22;19493;48.042;7.584;2023-08-06T02:22:42;14.60;99.90
26505;DHT22;19493;48.042;7.584;2023-08-06T02:25:07;14.60;99.90
26505;DHT22;19493;48.042;7.584;2023-08-06T02:27:33;14.60;99.90
26505;DHT22;19493;48.042;7.584;2023-08-06T02:29:59;14.60;99.90
26505;DHT22;19493;48.042;7.584;2023-08-06T02:32:24;14.60;99.90
26505;DHT22;19493;48.042;7.584;2023-08-06T02:34:50;14.50;99.90
26505;DHT22;19493;48.042;7.584;2023-08-06T02:37:15;14.50;99.90
26505;DHT22;19493;48.042;7.584;2023-08-06T02:39:41;14.40;99.90
26505;DHT22;19493;48.042;7.584;2023-08-06T02:42:07;14.40;99.90
26505;DHT22;19493;48.042;7.584;2023-08-06T02:44:33;14.30;99.90
26505;DHT22;19493;48.042;7.584;2023-08-06T02:46:59;14.30;99.90
26505;DHT22;19493;48.042;7.584;2023-08-06T02:49:25;14.30;99.90
26505;DHT22;19493;48.042;7.584;2023-08-06T02:51:50;14.20;99.90
26505;DHT22;19493;48.042;7.584;2023-08-06T02:54:16;14.20;99.90
26505;DHT22;19493;48.042;7.584;2023-08-06T02:56:45;14.20;99.90
26505;DHT22;19493;48.042;7.584;2023-08-06T02:59:11;14.20;99.90
26505;DHT22;19493;48.042;7.584;2023-08-06T03:01:36;14.10;99.90
26505;DHT22;19493;48.042;7.584;2023-08-06T03:04:03;14.10;99.90
26505;DHT22;19493;48.042;7.584;2023-08-06T03:06:29;14.20;99.90
26505;DHT22;19493;48.042;7.584;2023-08-06T03:08:54;14.20;99.90
26505;DHT22;19493;48.042;7.584;2023-08-06T03:11:20;14.30;99.90
26505;DHT22;19493;48.042;7.584;2023-08-06T03:13:49;14.20;99.90
26505;DHT22;19493;48.042;7.584;2023-08-06T03:16:15;14.30;99.90
26505;DHT22;19493;48.042;7.584;2023-08-06T03:18:40;14.10;99.90
26505;DHT22;19493;48.042;7.584;2023-08-06T03:21:06;14.10;99.90
26505;DHT22;19493;48.042;7.584;2023-08-06T03:23:32;14.00;99.90
26505;DHT22;19493;48.042;7.584;2023-08-06T03:26:04;14.00;99.90
26505;DHT22;19493;48.042;7.584;2023-08-06T03:28:29;14.00;99.90
26505;DHT22;19493;48.042;7.584;2023-08-06T03:31:02;14.00;99.90
26505;DHT22;19493;48.042;7.584;2023-08-06T03:33:28;13.90;99.90
26505;DHT22;19493;48.042;7.584;2023-08-06T03:35:54;13.90;99.90
26505;DHT22;19493;48.042;7.584;2023-08-06T03:38:19;13.80;99.90
26505;DHT22;19493;48.042;7.584;2023-08-06T03:40:46;13.70;99.90
26505;DHT22;19493;48.042;7.584;2023-08-06T03:43:12;13.60;99.90
26505;DHT22;19493;48.042;7.584;2023-08-06T03:45:37;13.50;99.90
26505;DHT22;19493;48.042;7.584;2023-08-06T03:48:03;13.40;99.90
26505;DHT22;19493;48.042;7.584;2023-08-06T03:50:29;13.30;99.90
26505;DHT22;19493;48.042;7.584;2023-08-06T03:52:54;13.30;99.90
26505;DHT22;19493;48.042;7.584;2023-08-06T03:55:20;13.30;99.90
26505;DHT22;19493;48.042;7.584;2023-08-06T03:57:46;13.40;99.90
26505;DHT22;19493;48.042;7.584;2023-08-06T04:00:12;13.40;99.90
26505;DHT22;19493;48.042;7.584;2023-08-06T04:02:38;13.40;99.90
26505;DHT22;19493;48.042;7.584;2023-08-06T04:05:04;13.40;99.90
26505;DHT22;19493;48.042;7.584;2023-08-06T04:07:29;13.50;99.90
26505;DHT22;19493;48.042;7.584;2023-08-06T04:09:58;13.50;99.90
26505;DHT22;19493;48.042;7.584;2023-08-06T04:12:24;13.50;99.90
26505;DHT22;19493;48.042;7.584;2023-08-06T04:14:50;13.50;99.90
26505;DHT22;19493;48.042;7.584;2023-08-06T04:17:16;13.50;99.90
26505;DHT22;19493;48.042;7.584;2023-08-06T04:19:42;13.50;99.90
26505;DHT22;19493;48.042;7.584;2023-08-06T04:22:07;13.60;99.90
26505;DHT22;19493;48.042;7.584;2023-08-06T04:24:33;13.60;99.90
26505;DHT22;19493;48.042;7.584;2023-08-06T04:26:59;13.70;99.90
26505;DHT22;19493;48.042;7.584;2023-08-06T04:29:24;13.80;99.90
26505;DHT22;19493;48.042;7.584;2023-08-06T04:31:50;13.80;99.90
26505;DHT22;19493;48.042;7.584;2023-08-06T04:34:15;13.80;99.90
26505;DHT22;19493;48.042;7.584;2023-08-06T04:36:41;13.80;99.90
26505;DHT22;19493;48.042;7.584;2023-08-06T04:39:06;13.70;99.90
26505;DHT22;19493;48.042;7.584;2023-08-06T04:41:32;13.60;99.90
26505;DHT22;19493;48.042;7.584;2023-08-06T04:43:57;13.50;99.90
26505;DHT22;19493;48.042;7.584;2023-08-06T04:46:23;13.50;99.90
26505;DHT22;19493;48.042;7.584;2023-08-06T04:48:48;13.50;99.90
26505;DHT22;19493;48.042;7.584;2023-08-06T04:51:14;13.50;99.90
26505;DHT22;19493;48.042;7.584;2023-08-06T04:53:40;13.50;99.90
26505;DHT22;19493;48.042;7.584;2023-08-06T04:56:06;13.30;99.90
26505;DHT22;19493;48.042;7.584;2023-08-06T04:58:31;13.20;99.90
26505;DHT22;19493;48.042;7.584;2023-08-06T05:00:57;13.20;99.90
26505;DHT22;19493;48.042;7.584;2023-08-06T05:03:23;13.10;99.90
26505;DHT22;19493;48.042;7.584;2023-08-06T05:05:48;13.10;99.90
26505;DHT22;19493;48.042;7.584;2023-08-06T05:08:15;13.10;99.90
26505;DHT22;19493;48.042;7.584;2023-08-06T05:10:45;13.10;99.90
26505;DHT22;19493;48.042;7.584;2023-08-06T05:13:10;13.10;99.90
26505;DHT22;19493;48.042;7.584;2023-08-06T05:15:36;13.10;99.90
26505;DHT22;19493;48.042;7.584;2023-08-06T05:18:02;13.10;99.90
26505;DHT22;19493;48.042;7.584;2023-08-06T05:20:27;13.10;99.90
26505;DHT22;19493;48.042;7.584;2023-08-06T05:22:53;13.10;99.90
26505;DHT22;19493;48.042;7.584;2023-08-06T05:25:18;13.00;99.90
26505;DHT22;19493;48.042;7.584;2023-08-06T05:27:44;13.00;99.90
26505;DHT22;19493;48.042;7.584;2023-08-06T05:30:10;13.00;99.90
26505;DHT22;19493;48.042;7.584;2023-08-06T05:32:35;13.00;99.90
26505;DHT22;19493;48.042;7.584;2023-08-06T05:35:01;13.00;99.90
26505;DHT22;19493;48.042;7.584;2023-08-06T05:37:27;13.00;99.90
26505;DHT22;19493;48.042;7.584;2023-08-06T05:39:52;13.00;99.90
26505;DHT22;19493;48.042;7.584;2023-08-06T05:42:18;13.00;99.90
26505;DHT22;19493;48.042;7.584;2023-08-06T05:44:43;13.00;99.90
26505;DHT22;19493;48.042;7.584;2023-08-06T05:47:09;13.00;99.90
26505;DHT22;19493;48.042;7.584;2023-08-06T05:49:35;13.10;99.90
26505;DHT22;19493;48.042;7.584;2023-08-06T05:52:00;13.20;99.90
26505;DHT22;19493;48.042;7.584;2023-08-06T05:54:26;13.20;99.90
26505;DHT22;19493;48.042;7.584;2023-08-06T05:56:51;13.30;99.90
26505;DHT22;19493;48.042;7.584;2023-08-06T05:59:17;13.30;99.90
26505;DHT22;19493;48.042;7.584;2023-08-06T06:01:42;13.20;99.90
26505;DHT22;19493;48.042;7.584;2023-08-06T06:04:08;13.20;99.90
26505;DHT22;19493;48.042;7.584;2023-08-06T06:06:33;13.10;99.90
26505;DHT22;19493;48.042;7.584;2023-08-06T06:08:59;13.10;99.90
26505;DHT22;19493;48.042;7.584;2023-08-06T06:11:25;13.10;99.90
26505;DHT22;19493;48.042;7.584;2023-08-06T06:13:51;13.10;99.90
26505;DHT22;19493;48.042;7.584;2023-08-06T06:16:17;13.10;99.90
26505;DHT22;19493;48.042;7.584;2023-08-06T06:18:43;13.10;99.90
26505;DHT22;19493;48.042;7.584;2023-08-06T06:21:09;13.20;99.90
26505;DHT22;19493;48.042;7.584;2023-08-06T06:23:35;13.20;99.90
26505;DHT22;19493;48.042;7.584;2023-08-06T06:26:00;13.20;99.90
26505;DHT22;19493;48.042;7.584;2023-08-06T06:28:26;13.20;99.90
26505;DHT22;19493;48.042;7.584;2023-08-06T06:30:52;13.20;99.90
26505;DHT22;19493;48.042;7.584;2023-08-06T06:33:17;13.20;99.90
26505;DHT22;19493;48.042;7.584;2023-08-06T06:35:43;13.10;99.90
26505;DHT22;19493;48.042;7.584;2023-08-06T06:38:08;13.20;99.90
26505;DHT22;19493;48.042;7.584;2023-08-06T06:40:34;13.20;99.90
26505;DHT22;19493;48.042;7.584;2023-08-06T06:42:59;13.20;99.90
26505;DHT22;19493;48.042;7.584;2023-08-06T06:45:25;13.30;99.90
26505;DHT22;19493;48.042;7.584;2023-08-06T06:47:50;13.30;99.90
26505;DHT22;19493;48.042;7.584;2023-08-06T06:50:16;13.30;99.90
26505;DHT22;19493;48.042;7.584;2023-08-06T06:52:42;13.40;99.90
26505;DHT22;19493;48.042;7.584;2023-08-06T06:55:07;13.40;99.90
26505;DHT22;19493;48.042;7.584;2023-08-06T06:57:33;13.50;99.90
26505;DHT22;19493;48.042;7.584;2023-08-06T06:59:59;13.60;99.90
26505;DHT22;19493;48.042;7.584;2023-08-06T07:02:25;13.70;99.90
26505;DHT22;19493;48.042;7.584;2023-08-06T07:04:51;13.70;99.90
26505;DHT22;19493;48.042;7.584;2023-08-06T07:07:16;13.60;99.90
26505;DHT22;19493;48.042;7.584;2023-08-06T07:09:42;13.60;99.90
26505;DHT22;19493;48.042;7.584;2023-08-06T07:12:07;13.70;99.90
26505;DHT22;19493;48.042;7.584;2023-08-06T07:14:33;13.80;99.90
26505;DHT22;19493;48.042;7.584;2023-08-06T07:16:59;13.80;99.90
26505;DHT22;19493;48.042;7.584;2023-08-06T07:19:24;13.90;99.90
26505;DHT22;19493;48.042;7.584;2023-08-06T07:21:50;14.00;99.90
26505;DHT22;19493;48.042;7.584;2023-08-06T07:24:16;14.10;99.90
26505;DHT22;19493;48.042;7.584;2023-08-06T07:26:41;14.50;99.90
26505;DHT22;19493;48.042;7.584;2023-08-06T07:29:07;14.80;99.90
26505;DHT22;19493;48.042;7.584;2023-08-06T07:31:32;15.00;99.90
26505;DHT22;19493;48.042;7.584;2023-08-06T07:33:58;15.30;99.90
26505;DHT22;19493;48.042;7.584;2023-08-06T07:36:23;15.60;99.90
26505;DHT22;19493;48.042;7.584;2023-08-06T07:38:49;15.80;99.90
26505;DHT22;19493;48.042;7.584;2023-08-06T07:41:21;15.90;99.90
26505;DHT22;19493;48.042;7.584;2023-08-06T07:43:46;15.70;99.90
26505;DHT22;19493;48.042;7.584;2023-08-06T07:46:12;15.20;99.90
26505;DHT22;19493;48.042;7.584;2023-08-06T07:48:38;14.80;99.90
26505;DHT22;19493;48.042;7.584;2023-08-06T07:51:04;14.60;99.90
26505;DHT22;19493;48.042;7.584;2023-08-06T07:53:29;14.50;99.90
26505;DHT22;19493;48.042;7.584;2023-08-06T07:55:59;14.40;99.90
26505;DHT22;19493;48.042;7.584;2023-08-06T07:58:27;14.30;99.90
26505;DHT22;19493;48.042;7.584;2023-08-06T08:00:54;14.30;99.90
26505;DHT22;19493;48.042;7.584;2023-08-06T08:03:20;14.30;99.90
26505;DHT22;19493;48.042;7.584;2023-08-06T08:05:45;14.30;99.90
26505;DHT22;19493;48.042;7.584;2023-08-06T08:08:11;14.30;99.90
26505;DHT22;19493;48.042;7.584;2023-08-06T08:10:37;14.30;99.90
26505;DHT22;19493;48.042;7.584;2023-08-06T08:13:04;14.30;99.90
26505;DHT22;19493;48.042;7.584;2023-08-06T08:15:30;14.40;99.90
26505;DHT22;19493;48.042;7.584;2023-08-06T08:17:56;14.30;99.90
26505;DHT22;19493;48.042;7.584;2023-08-06T08:20:22;14.30;99.90
26505;DHT22;19493;48.042;7.584;2023-08-06T08:22:48;14.30;99.90
26505;DHT22;19493;48.042;7.584;2023-08-06T08:25:15;14.50;99.90
26505;DHT22;19493;48.042;7.584;2023-08-06T08:27:40;14.80;99.90
26505;DHT22;19493;48.042;7.584;2023-08-06T08:30:06;15.00;99.90
26505;DHT22;19493;48.042;7.584;2023-08-06T08:32:32;15.20;99.90
26505;DHT22;19493;48.042;7.584;2023-08-06T08:34:57;15.30;99.90
26505;DHT22;19493;48.042;7.584;2023-08-06T08:37:23;15.30;99.90
26505;DHT22;19493;48.042;7.584;2023-08-06T08:39:49;15.40;99.90
26505;DHT22;19493;48.042;7.584;2023-08-06T08:42:16;15.50;99.90
26505;DHT22;19493;48.042;7.584;2023-08-06T08:44:42;15.60;99.90
26505;DHT22;19493;48.042;7.584;2023-08-06T08:47:09;15.90;99.90
26505;DHT22;19493;48.042;7.584;2023-08-06T08:49:36;16.20;99.90
26505;DHT22;19493;48.042;7.584;2023-08-06T08:52:03;16.50;99.90
26505;DHT22;19493;48.042;7.584;2023-08-06T08:54:31;16.80;99.90
26505;DHT22;19493;48.042;7.584;2023-08-06T08:56:57;16.90;99.90
26505;DHT22;19493;48.042;7.584;2023-08-06T08:59:23;16.90;99.90
26505;DHT22;19493;48.042;7.584;2023-08-06T09:01:49;16.90;99.90
26505;DHT22;19493;48.042;7.584;2023-08-06T09:04:18;16.80;99.90
26505;DHT22;19493;48.042;7.584;2023-08-06T09:06:47;16.80;99.90
26505;DHT22;19493;48.042;7.584;2023-08-06T09:09:17;16.80;99.90
26505;DHT22;19493;48.042;7.584;2023-08-06T09:11:45;16.80;99.90
26505;DHT22;19493;48.042;7.584;2023-08-06T09:14:13;16.90;99.90
26505;DHT22;19493;48.042;7.584;2023-08-06T09:16:39;17.10;99.90
26505;DHT22;19493;48.042;7.584;2023-08-06T09:19:11;17.40;99.90
26505;DHT22;19493;48.042;7.584;2023-08-06T09:21:41;17.50;99.90
26505;DHT22;19493;48.042;7.584;2023-08-06T09:24:11;17.50;99.90
26505;DHT22;19493;48.042;7.584;2023-08-06T09:26:38;17.60;99.90
26505;DHT22;19493;48.042;7.584;2023-08-06T09:29:08;17.50;99.90
26505;DHT22;19493;48.042;7.584;2023-08-06T09:31:48;17.30;99.90
26505;DHT22;19493;48.042;7.584;2023-08-06T09:34:18;17.20;99.90
26505;DHT22;19493;48.042;7.584;2023-08-06T09:36:51;17.20;99.90
26505;DHT22;19493;48.042;7.584;2023-08-06T09:39:18;17.20;99.90
26505;DHT22;19493;48.042;7.584;2023-08-06T09:41:45;17.30;99.90
26505;DHT22;19493;48.042;7.584;2023-08-06T09:44:21;17.40;99.90
26505;DHT22;19493;48.042;7.584;2023-08-06T09:46:56;17.40;99.90
26505;DHT22;19493;48.042;7.584;2023-08-06T09:49:26;17.40;99.90
26505;DHT22;19493;48.042;7.584;2023-08-06T09:51:52;17.60;99.90
26505;DHT22;19493;48.042;7.584;2023-08-06T09:54:22;17.70;99.90
26505;DHT22;19493;48.042;7.584;2023-08-06T09:56:49;17.70;99.90
26505;DHT22;19493;48.042;7.584;2023-08-06T09:59:17;17.80;99.90
26505;DHT22;19493;48.042;7.584;2023-08-06T10:01:43;18.00;99.90
26505;DHT22;19493;48.042;7.584;2023-08-06T10:04:10;18.10;99.90
26505;DHT22;19493;48.042;7.584;2023-08-06T10:06:37;18.40;99.90
26505;DHT22;19493;48.042;7.584;2023-08-06T10:09:06;18.60;99.90
26505;DHT22;19493;48.042;7.584;2023-08-06T10:11:33;18.60;99.90
26505;DHT22;19493;48.042;7.584;2023-08-06T10:14:14;18.40;99.90
26505;DHT22;19493;48.042;7.584;2023-08-06T10:16:42;18.20;99.90
26505;DHT22;19493;48.042;7.584;2023-08-06T10:19:09;18.10;99.90
26505;DHT22;19493;48.042;7.584;2023-08-06T10:21:35;18.10;99.90
26505;DHT22;19493;48.042;7.584;2023-08-06T10:24:01;18.20;99.90
26505;DHT22;19493;48.042;7.584;2023-08-06T10:26:28;18.10;99.90
26505;DHT22;19493;48.042;7.584;2023-08-06T10:28:54;18.00;99.90
26505;DHT22;19493;48.042;7.584;2023-08-06T10:31:31;17.90;99.90
26505;DHT22;19493;48.042;7.584;2023-08-06T10:34:05;17.60;99.90
26505;DHT22;19493;48.042;7.584;2023-08-06T10:36:32;17.40;99.90
26505;DHT22;19493;48.042;7.584;2023-08-06T10:38:58;17.40;99.90
26505;DHT22;19493;48.042;7.584;2023-08-06T10:43:52;17.90;99.90
26505;DHT22;19493;48.042;7.584;2023-08-06T10:46:30;18.20;99.90
26505;DHT22;19493;48.042;7.584;2023-08-06T10:48:56;18.20;99.90
26505;DHT22;19493;48.042;7.584;2023-08-06T10:51:22;18.10;99.90
26505;DHT22;19493;48.042;7.584;2023-08-06T10:53:49;18.10;99.90
26505;DHT22;19493;48.042;7.584;2023-08-06T10:56:16;17.90;99.90
26505;DHT22;19493;48.042;7.584;2023-08-06T10:58:43;17.80;99.90
26505;DHT22;19493;48.042;7.584;2023-08-06T11:01:10;17.70;99.90
26505;DHT22;19493;48.042;7.584;2023-08-06T11:03:36;17.60;99.90
26505;DHT22;19493;48.042;7.584;2023-08-06T11:06:02;17.50;99.90
26505;DHT22;19493;48.042;7.584;2023-08-06T11:08:30;17.50;99.90
26505;DHT22;19493;48.042;7.584;2023-08-06T11:11:08;17.60;99.90
26505;DHT22;19493;48.042;7.584;2023-08-06T11:13:34;17.70;99.90
26505;DHT22;19493;48.042;7.584;2023-08-06T11:15:59;17.60;99.90
26505;DHT22;19493;48.042;7.584;2023-08-06T11:18:25;17.80;99.90
26505;DHT22;19493;48.042;7.584;2023-08-06T11:20:51;18.30;99.90
26505;DHT22;19493;48.042;7.584;2023-08-06T11:23:16;18.60;99.90
26505;DHT22;19493;48.042;7.584;2023-08-06T11:25:45;18.90;99.90
26505;DHT22;19493;48.042;7.584;2023-08-06T11:28:12;19.00;99.90
26505;DHT22;19493;48.042;7.584;2023-08-06T11:30:38;19.00;99.90
26505;DHT22;19493;48.042;7.584;2023-08-06T11:33:06;19.10;99.90
26505;DHT22;19493;48.042;7.584;2023-08-06T11:35:34;19.20;99.90
26505;DHT22;19493;48.042;7.584;2023-08-06T11:38:04;19.40;99.90
26505;DHT22;19493;48.042;7.584;2023-08-06T11:40:30;19.60;99.90
26505;DHT22;19493;48.042;7.584;2023-08-06T11:42:57;20.00;99.90
26505;DHT22;19493;48.042;7.584;2023-08-06T11:45:34;20.00;99.90
26505;DHT22;19493;48.042;7.584;2023-08-06T11:48:00;19.50;99.90
26505;DHT22;19493;48.042;7.584;2023-08-06T11:50:27;18.80;99.90
26505;DHT22;19493;48.042;7.584;2023-08-06T11:52:57;18.10;99.90
26505;DHT22;19493;48.042;7.584;2023-08-06T11:55:24;17.10;99.90
26505;DHT22;19493;48.042;7.584;2023-08-06T11:57:51;16.50;99.90
26505;DHT22;19493;48.042;7.584;2023-08-06T12:00:17;16.20;99.90
26505;DHT22;19493;48.042;7.584;2023-08-06T12:02:45;16.40;99.90
26505;DHT22;19493;48.042;7.584;2023-08-06T12:07:49;17.50;99.90
26505;DHT22;19493;48.042;7.584;2023-08-06T12:10:16;18.70;99.90
26505;DHT22;19493;48.042;7.584;2023-08-06T12:12:42;20.50;99.90
26505;DHT22;19493;48.042;7.584;2023-08-06T12:15:09;21.60;99.90
26505;DHT22;19493;48.042;7.584;2023-08-06T12:17:36;21.30;99.90
26505;DHT22;19493;48.042;7.584;2023-08-06T12:20:02;20.40;99.90
26505;DHT22;19493;48.042;7.584;2023-08-06T12:22:30;19.70;99.90
26505;DHT22;19493;48.042;7.584;2023-08-06T12:25:05;19.00;99.90
26505;DHT22;19493;48.042;7.584;2023-08-06T12:27:41;19.00;99.90
26505;DHT22;19493;48.042;7.584;2023-08-06T12:30:07;20.00;99.90
26505;DHT22;19493;48.042;7.584;2023-08-06T12:32:33;20.80;99.90
26505;DHT22;19493;48.042;7.584;2023-08-06T12:34:59;20.30;99.90
26505;DHT22;19493;48.042;7.584;2023-08-06T12:37:26;20.60;99.90
26505;DHT22;19493;48.042;7.584;2023-08-06T12:39:52;23.60;99.90
26505;DHT22;19493;48.042;7.584;2023-08-06T12:42:17;25.90;99.90
26505;DHT22;19493;48.042;7.584;2023-08-06T12:44:43;26.90;99.90
26505;DHT22;19493;48.042;7.584;2023-08-06T12:47:09;27.10;99.90
26505;DHT22;19493;48.042;7.584;2023-08-06T12:49:34;27.00;97.70
26505;DHT22;19493;48.042;7.584;2023-08-06T12:52:00;27.80;95.10
26505;DHT22;19493;48.042;7.584;2023-08-06T12:54:27;28.00;91.70
26505;DHT22;19493;48.042;7.584;2023-08-06T12:56:53;28.60;90.20
26505;DHT22;19493;48.042;7.584;2023-08-06T12:59:19;30.00;89.10
26505;DHT22;19493;48.042;7.584;2023-08-06T13:01:45;30.50;76.70
26505;DHT22;19493;48.042;7.584;2023-08-06T13:04:11;29.90;75.50
26505;DHT22;19493;48.042;7.584;2023-08-06T13:06:37;29.60;73.70
26505;DHT22;19493;48.042;7.584;2023-08-06T13:09:08;29.10;72.50
26505;DHT22;19493;48.042;7.584;2023-08-06T13:11:35;27.60;71.80
26505;DHT22;19493;48.042;7.584;2023-08-06T13:14:06;27.90;73.20
26505;DHT22;19493;48.042;7.584;2023-08-06T13:16:32;28.20;69.70
26505;DHT22;19493;48.042;7.584;2023-08-06T13:18:58;28.50;69.10
26505;DHT22;19493;48.042;7.584;2023-08-06T13:21:24;27.90;68.90
26505;DHT22;19493;48.042;7.584;2023-08-06T13:23:49;28.00;69.90
26505;DHT22;19493;48.042;7.584;2023-08-06T13:26:15;27.10;69.60
26505;DHT22;19493;48.042;7.584;2023-08-06T13:28:43;25.60;72.90
26505;DHT22;19493;48.042;7.584;2023-08-06T13:31:10;23.80;76.80
26505;DHT22;19493;48.042;7.584;2023-08-06T13:33:35;22.70;80.10
26505;DHT22;19493;48.042;7.584;2023-08-06T13:36:02;22.20;83.50
26505;DHT22;19493;48.042;7.584;2023-08-06T13:38:27;21.90;84.10
26505;DHT22;19493;48.042;7.584;2023-08-06T13:40:56;21.50;85.20
26505;DHT22;19493;48.042;7.584;2023-08-06T13:43:22;21.10;87.50
26505;DHT22;19493;48.042;7.584;2023-08-06T13:45:47;20.80;88.90
26505;DHT22;19493;48.042;7.584;2023-08-06T13:48:13;20.70;89.40
26505;DHT22;19493;48.042;7.584;2023-08-06T13:50:38;21.00;90.40
26505;DHT22;19493;48.042;7.584;2023-08-06T13:53:04;21.50;90.20
26505;DHT22;19493;48.042;7.584;2023-08-06T13:55:29;21.60;87.70
26505;DHT22;19493;48.042;7.584;2023-08-06T13:57:55;21.40;86.90
26505;DHT22;19493;48.042;7.584;2023-08-06T14:00:21;20.60;90.00
26505;DHT22;19493;48.042;7.584;2023-08-06T14:02:46;19.90;92.70
26505;DHT22;19493;48.042;7.584;2023-08-06T14:05:12;19.50;94.70
26505;DHT22;19493;48.042;7.584;2023-08-06T14:07:38;19.10;96.30
26505;DHT22;19493;48.042;7.584;2023-08-06T14:10:04;18.90;96.70
26505;DHT22;19493;48.042;7.584;2023-08-06T14:12:30;18.80;97.30
26505;DHT22;19493;48.042;7.584;2023-08-06T14:15:01;19.00;97.50
26505;DHT22;19493;48.042;7.584;2023-08-06T14:17:28;19.40;97.70
26505;DHT22;19493;48.042;7.584;2023-08-06T14:19:54;20.00;97.40
26505;DHT22;19493;48.042;7.584;2023-08-06T14:22:19;22.10;96.80
26505;DHT22;19493;48.042;7.584;2023-08-06T14:24:45;25.20;91.70
26505;DHT22;19493;48.042;7.584;2023-08-06T14:27:12;27.20;84.60
26505;DHT22;19493;48.042;7.584;2023-08-06T14:29:38;28.30;75.50
26505;DHT22;19493;48.042;7.584;2023-08-06T14:32:03;27.70;71.60
26505;DHT22;19493;48.042;7.584;2023-08-06T14:34:29;26.90;72.60
26505;DHT22;19493;48.042;7.584;2023-08-06T14:36:54;26.00;72.50
26505;DHT22;19493;48.042;7.584;2023-08-06T14:39:20;25.90;71.30
26505;DHT22;19493;48.042;7.584;2023-08-06T14:41:46;23.90;72.80
26505;DHT22;19493;48.042;7.584;2023-08-06T14:44:12;22.40;77.90
26505;DHT22;19493;48.042;7.584;2023-08-06T14:46:38;21.30;82.30
26505;DHT22;19493;48.042;7.584;2023-08-06T14:49:03;20.60;85.20
26505;DHT22;19493;48.042;7.584;2023-08-06T14:51:29;20.40;87.30
26505;DHT22;19493;48.042;7.584;2023-08-06T14:53:54;20.10;87.70
26505;DHT22;19493;48.042;7.584;2023-08-06T14:56:20;20.00;90.20
26505;DHT22;19493;48.042;7.584;2023-08-06T14:58:45;20.20;90.30
26505;DHT22;19493;48.042;7.584;2023-08-06T15:01:11;20.00;90.80
26505;DHT22;19493;48.042;7.584;2023-08-06T15:03:36;19.80;91.60
26505;DHT22;19493;48.042;7.584;2023-08-06T15:06:02;19.20;94.70
26505;DHT22;19493;48.042;7.584;2023-08-06T15:08:27;18.20;98.60
26505;DHT22;19493;48.042;7.584;2023-08-06T15:10:54;17.50;99.90
26505;DHT22;19493;48.042;7.584;2023-08-06T15:13:20;17.30;99.90
26505;DHT22;19493;48.042;7.584;2023-08-06T15:18:15;17.00;99.90
26505;DHT22;19493;48.042;7.584;2023-08-06T15:20:41;17.00;99.90
26505;DHT22;19493;48.042;7.584;2023-08-06T15:23:06;17.80;99.90
26505;DHT22;19493;48.042;7.584;2023-08-06T15:25:32;20.80;99.90
26505;DHT22;19493;48.042;7.584;2023-08-06T15:27:57;22.40;99.90
26505;DHT22;19493;48.042;7.584;2023-08-06T15:30:23;24.40;99.90
26505;DHT22;19493;48.042;7.584;2023-08-06T15:32:49;25.80;95.50
26505;DHT22;19493;48.042;7.584;2023-08-06T15:35:14;26.70;92.50
26505;DHT22;19493;48.042;7.584;2023-08-06T15:37:40;27.80;89.20
26505;DHT22;19493;48.042;7.584;2023-08-06T15:40:06;27.60;81.10